createdAt,value
2023-05-19T00:00:57.981Z,10
2023-05-19T00:02:08.248Z,9.9
2023-05-19T00:03:16.154Z,9.9
2023-05-19T00:04:26.657Z,10
2023-05-19T00:05:40.965Z,10
2023-05-19T00:06:47.955Z,10
2023-05-19T00:07:59.471Z,9.8
2023-05-19T00:09:09.282Z,9.7
2023-05-19T00:10:20.045Z,9.8
2023-05-19T00:11:27.241Z,9.7
2023-05-19T00:12:34.817Z,9.5
2023-05-19T00:13:44.512Z,9.5
2023-05-19T00:14:56.187Z,9.7
2023-05-19T00:16:06.367Z,9.8
2023-05-19T00:17:19.096Z,9.7
2023-05-19T00:18:30.701Z,9.8
2023-05-19T00:19:43.785Z,9.9
2023-05-19T00:20:50.702Z,9.8
2023-05-19T00:22:02.222Z,9.8
2023-05-19T00:23:10.100Z,9.9
2023-05-19T00:24:20.937Z,9.8
2023-05-19T00:25:27.766Z,9.7
2023-05-19T00:26:35.257Z,9.8
2023-05-19T00:27:48.934Z,9.9
2023-05-19T00:28:55.841Z,9.9
2023-05-19T00:30:03.862Z,9.9
2023-05-19T00:31:17.073Z,9.9
2023-05-19T00:32:30.322Z,9.8
2023-05-19T00:33:39.756Z,9.8
2023-05-19T00:34:47.218Z,9.9
2023-05-19T00:35:55.113Z,9.8
2023-05-19T00:37:06.480Z,9.7
2023-05-19T00:38:17.863Z,9.4
2023-05-19T00:39:24.885Z,9.3
2023-05-19T00:40:31.923Z,9.4
2023-05-19T00:41:38.901Z,9.3
2023-05-19T00:42:45.903Z,9.3
2023-05-19T00:43:52.823Z,9.4
2023-05-19T00:45:05.709Z,9.4
2023-05-19T00:46:13.901Z,9.4
2023-05-19T00:47:20.870Z,9.6
2023-05-19T00:48:29.802Z,9.6
2023-05-19T00:49:40.206Z,9.6
2023-05-19T00:50:47.109Z,9.4
2023-05-19T00:51:54.754Z,9.1
2023-05-19T00:53:08.685Z,9.2
2023-05-19T00:54:18.293Z,9.3
2023-05-19T00:55:28.373Z,9.2
2023-05-19T00:56:35.288Z,9.4
2023-05-19T00:57:42.254Z,9.3
2023-05-19T00:58:49.198Z,9.3
2023-05-19T00:59:58.387Z,9.4
2023-05-19T01:01:08.083Z,9.5
2023-05-19T01:02:19.354Z,9.6
2023-05-19T01:03:27.399Z,9.7
2023-05-19T01:04:40.574Z,9.6
2023-05-19T01:05:50.365Z,9.5
2023-05-19T01:07:08.611Z,9.4
2023-05-19T01:08:15.882Z,9.6
2023-05-19T01:09:29.617Z,9.6
2023-05-19T01:10:36.680Z,9.5
2023-05-19T01:11:44.102Z,9.5
2023-05-19T01:12:56.754Z,9.5
2023-05-19T01:14:04.841Z,9.5
2023-05-19T01:15:14.590Z,9.5
2023-05-19T01:16:26.537Z,9.6
2023-05-19T01:17:42.713Z,9.5
2023-05-19T01:18:50.488Z,9.6
2023-05-19T01:20:03.367Z,9.6
2023-05-19T01:21:15.404Z,9.7
2023-05-19T01:22:25.700Z,9.6
2023-05-19T01:23:40.197Z,9.4
2023-05-19T01:24:57.776Z,9.4
2023-05-19T01:26:10.188Z,9.4
2023-05-19T01:27:32.380Z,9.4
2023-05-19T01:28:47.564Z,9.5
2023-05-19T01:30:14.314Z,9.7
2023-05-19T01:31:32.652Z,9.7
2023-05-19T01:32:51.612Z,9.5
2023-05-19T01:33:59.518Z,9.7
2023-05-19T01:35:08.301Z,9.3
2023-05-19T01:36:15.507Z,9.4
2023-05-19T01:37:27.880Z,9.4
2023-05-19T01:38:34.726Z,9.5
2023-05-19T01:39:50.963Z,9.4
2023-05-19T01:41:04.011Z,9.6
2023-05-19T01:42:10.964Z,9.6
2023-05-19T01:43:17.845Z,9.6
2023-05-19T01:44:27.563Z,9.5
2023-05-19T01:45:38.180Z,9.5
2023-05-19T01:46:50.497Z,9.6
2023-05-19T01:48:12.067Z,9.6
2023-05-19T01:49:28.874Z,9.7
2023-05-19T01:50:39.682Z,9.6
2023-05-19T01:51:49.698Z,9.6
2023-05-19T01:52:57.806Z,9.6
2023-05-19T01:54:06.471Z,9.7
2023-05-19T01:55:13.366Z,9.7
2023-05-19T01:56:23.534Z,9.6
2023-05-19T01:57:41.901Z,9.6
2023-05-19T01:58:59.931Z,9.2
2023-05-19T02:00:07.359Z,9.4
2023-05-19T02:01:22.365Z,9.5
2023-05-19T02:02:43.150Z,9.5
2023-05-19T02:03:58.745Z,9.6
2023-05-19T02:05:19.642Z,9.6
2023-05-19T02:06:34.407Z,9.5
2023-05-19T02:07:53.903Z,9.4
2023-05-19T02:09:10.966Z,9.2
2023-05-19T02:10:31.455Z,9.1
2023-05-19T02:11:38.297Z,9.2
2023-05-19T02:12:52.175Z,9.3
2023-05-19T02:14:04.414Z,9.3
2023-05-19T02:15:28.825Z,9.4
2023-05-19T02:16:42.038Z,9.4
2023-05-19T02:17:52.153Z,9.3
2023-05-19T02:19:00.712Z,9.4
2023-05-19T02:20:08.238Z,9.4
2023-05-19T02:21:19.168Z,9.4
2023-05-19T02:22:28.043Z,9.4
2023-05-19T02:23:36.124Z,9.6
2023-05-19T02:24:46.061Z,9.6
2023-05-19T02:25:53.743Z,9.4
2023-05-19T02:27:03.697Z,9.4
2023-05-19T02:28:25.522Z,9.4
2023-05-19T02:29:32.587Z,9.4
2023-05-19T02:30:42.634Z,9
2023-05-19T02:31:53.006Z,9
2023-05-19T02:33:02.834Z,9
2023-05-19T02:34:18.146Z,9.2
2023-05-19T02:35:22.694Z,9.3
2023-05-19T02:36:34.567Z,9.3
2023-05-19T02:37:42.679Z,9.3
2023-05-19T02:38:52.667Z,9.3
2023-05-19T02:40:06.974Z,9.4
2023-05-19T02:41:14.166Z,9.4
2023-05-19T02:42:24.835Z,9.4
2023-05-19T02:43:32.278Z,9.4
2023-05-19T02:44:44.793Z,9.5
2023-05-19T02:45:51.671Z,9.5
2023-05-19T02:47:04.011Z,9.5
2023-05-19T02:48:10.948Z,9.4
2023-05-19T02:49:21.570Z,9.5
2023-05-19T02:50:29.782Z,9.5
2023-05-19T02:51:39.521Z,9.4
2023-05-19T02:52:50.149Z,9.3
2023-05-19T02:53:59.807Z,9.5
2023-05-19T02:55:08.856Z,9.5
2023-05-19T02:56:18.840Z,9.6
2023-05-19T02:57:32.169Z,9.6
2023-05-19T02:58:40.257Z,9.6
2023-05-19T02:59:50.780Z,9.6
2023-05-19T03:00:57.804Z,9.7
2023-05-19T03:02:06.606Z,9.5
2023-05-19T03:03:19.835Z,9.6
2023-05-19T03:04:30.636Z,9.6
2023-05-19T03:05:37.708Z,9.7
2023-05-19T03:06:47.958Z,9.6
2023-05-19T03:07:55.765Z,9.6
2023-05-19T03:09:06.791Z,9.6
2023-05-19T03:10:23.209Z,9.7
2023-05-19T03:11:31.085Z,9.7
2023-05-19T03:12:42.438Z,9.7
2023-05-19T03:13:51.402Z,9.8
2023-05-19T03:15:00.974Z,9.7
2023-05-19T03:16:12.448Z,9.6
2023-05-19T03:17:25.329Z,9.6
2023-05-19T03:18:32.114Z,9.6
2023-05-19T03:19:44.887Z,9.7
2023-05-19T03:20:55.469Z,9.7
2023-05-19T03:22:08.396Z,9.8
2023-05-19T03:23:18.328Z,9.8
2023-05-19T03:24:27.336Z,9.8
2023-05-19T03:25:37.568Z,9.7
2023-05-19T03:26:48.887Z,9.5
2023-05-19T03:27:56.614Z,9.5
2023-05-19T03:29:06.842Z,9.6
2023-05-19T03:30:16.829Z,9.6
2023-05-19T03:31:26.737Z,9.6
2023-05-19T03:32:34.371Z,9.7
2023-05-19T03:33:46.719Z,9.8
2023-05-19T03:34:56.889Z,9.7
2023-05-19T03:36:07.476Z,9.7
2023-05-19T03:37:15.221Z,9.8
2023-05-19T03:38:22.230Z,9.6
2023-05-19T03:39:29.434Z,9.4
2023-05-19T03:40:43.931Z,9.4
2023-05-19T03:41:53.564Z,9.4
2023-05-19T03:43:00.487Z,9.5
2023-05-19T03:44:13.244Z,9.4
2023-05-19T03:45:21.146Z,9.5
2023-05-19T03:46:30.047Z,9.5
2023-05-19T03:47:36.927Z,9.3
2023-05-19T03:48:46.637Z,9.2
2023-05-19T03:49:55.366Z,9.4
2023-05-19T03:51:02.652Z,9.3
2023-05-19T03:52:25.655Z,9.2
2023-05-19T03:53:36.502Z,9.3
2023-05-19T03:54:43.939Z,9.4
2023-05-19T03:55:50.799Z,9.5
2023-05-19T03:56:58.397Z,9.3
2023-05-19T03:58:09.259Z,9.5
2023-05-19T03:59:19.117Z,9.6
2023-05-19T04:00:26.335Z,9.6
2023-05-19T04:01:33.321Z,9.7
2023-05-19T04:02:43.300Z,9.8
2023-05-19T04:03:58.818Z,9.8
2023-05-19T04:05:09.338Z,9.6
2023-05-19T04:06:19.806Z,9.6
2023-05-19T04:07:28.109Z,9.4
2023-05-19T04:08:38.418Z,9.3
2023-05-19T04:09:51.715Z,9.2
2023-05-19T04:11:01.566Z,9.2
2023-05-19T04:12:10.445Z,9.4
2023-05-19T04:13:18.042Z,9.2
2023-05-19T04:14:28.260Z,9.3
2023-05-19T04:15:41.604Z,9.5
2023-05-19T04:16:49.253Z,9.6
2023-05-19T04:18:00.849Z,9.4
2023-05-19T04:19:17.039Z,9.6
2023-05-19T04:20:34.400Z,9.6
2023-05-19T04:21:41.762Z,9.8
2023-05-19T04:22:50.884Z,9.9
2023-05-19T04:24:00.855Z,9.9
2023-05-19T04:25:08.701Z,9.7
2023-05-19T04:26:16.361Z,9.8
2023-05-19T04:27:27.408Z,9.8
2023-05-19T04:28:36.201Z,9.6
2023-05-19T04:29:44.141Z,9.5
2023-05-19T04:30:53.395Z,9.7
2023-05-19T04:32:03.193Z,9.8
2023-05-19T04:33:11.540Z,9.9
2023-05-19T04:34:18.565Z,9.7
2023-05-19T04:35:26.445Z,9.6
2023-05-19T04:36:34.105Z,9.6
2023-05-19T04:37:41.057Z,9.7
2023-05-19T04:38:48.634Z,9.6
2023-05-19T04:39:58.878Z,9.7
2023-05-19T04:41:13.198Z,9.7
2023-05-19T04:42:20.503Z,9.8
2023-05-19T04:43:30.325Z,9.8
2023-05-19T04:44:37.363Z,9.9
2023-05-19T04:45:47.098Z,10
2023-05-19T04:46:57.469Z,10.1
2023-05-19T04:48:08.050Z,10.1
2023-05-19T04:49:22.564Z,9.9
2023-05-19T04:50:33.173Z,9.7
2023-05-19T04:51:45.055Z,9.8
2023-05-19T04:52:54.939Z,9.8
2023-05-19T04:54:02.263Z,9.9
2023-05-19T04:55:09.628Z,10
2023-05-19T04:56:18.478Z,9.9
2023-05-19T04:57:26.231Z,9.9
2023-05-19T04:58:33.178Z,9.7
2023-05-19T04:59:40.768Z,9.8
2023-05-19T05:00:47.883Z,9.8
2023-05-19T05:01:55.674Z,9.9
2023-05-19T05:03:03.158Z,10.1
2023-05-19T05:04:10.838Z,10.1
2023-05-19T05:05:17.820Z,10.1
2023-05-19T05:10:50.945Z,10
2023-05-19T05:13:44.854Z,10.1
2023-05-19T05:15:09.465Z,10.1
2023-05-19T05:16:40.115Z,10.2
2023-05-19T05:27:26.900Z,10.1
2023-05-19T05:36:33.634Z,10.6
2023-05-19T05:38:53.485Z,10.5
2023-05-19T06:06:05.370Z,10.9
2023-05-19T06:07:48.716Z,10.7
2023-05-19T06:09:02.559Z,10.7
2023-05-19T08:28:33.719Z,11.9
2023-05-19T08:31:36.831Z,12
2023-05-19T08:38:50.830Z,12.2
2023-05-19T09:17:46.497Z,12.6
2023-05-19T09:59:21.416Z,13.1
2023-05-19T10:01:18.317Z,13.2
2023-05-19T10:03:24.611Z,13.1
2023-05-19T10:04:39.488Z,13.1
2023-05-19T10:06:47.234Z,13.4
2023-05-19T12:17:37.268Z,15
2023-05-19T12:20:08.018Z,14.6
2023-05-19T12:53:14.719Z,14.6
2023-05-19T12:55:52.862Z,14.9
2023-05-19T12:56:59.927Z,14.9
2023-05-19T12:58:17.632Z,14.9
2023-05-19T12:59:38.217Z,14.9
2023-05-19T13:03:59.431Z,14.7
2023-05-19T13:05:17.256Z,14.7
2023-05-19T13:06:30.185Z,15
2023-05-19T13:08:08.215Z,15
2023-05-19T13:09:36.736Z,15
2023-05-19T13:10:43.484Z,14.5
2023-05-19T13:11:55.561Z,14.6
2023-05-19T13:13:13.040Z,14.5
2023-05-19T13:14:19.913Z,14.6
2023-05-19T13:22:08.094Z,14.7
2023-05-19T13:23:23.662Z,14.7
2023-05-19T13:25:49.938Z,14.7
2023-05-19T16:37:23.264Z,14.9
2023-05-19T16:45:42.209Z,14.8
2023-05-19T16:56:46.559Z,14.7
2023-05-19T17:01:18.047Z,14.7
2023-05-19T17:03:28.061Z,14.7
2023-05-19T17:05:44.143Z,14.7
2023-05-19T17:07:17.953Z,14.4
2023-05-19T17:10:39.567Z,14.3
2023-05-19T17:11:49.355Z,14.4
2023-05-19T17:15:07.313Z,14.3
2023-05-19T17:54:49.380Z,14.3
2023-05-19T17:56:03.042Z,14.3
2023-05-19T17:57:37.045Z,14.3
2023-05-19T17:59:30.375Z,14.3
2023-05-19T18:00:42.499Z,14.3
2023-05-19T18:02:48.934Z,14.3
2023-05-19T18:07:37.086Z,14.1
2023-05-19T18:09:21.101Z,14.1
2023-05-19T18:10:32.754Z,14.1
2023-05-19T18:11:44.583Z,14.1
2023-05-19T18:13:00.380Z,14.1
2023-05-19T18:14:13.368Z,14.1
2023-05-19T18:15:23.570Z,14.1
2023-05-19T18:17:09.384Z,14.1
2023-05-19T18:18:16.283Z,14.2
2023-05-19T18:19:52.368Z,14.2
2023-05-19T18:21:38.813Z,14.3
2023-05-19T18:25:47.537Z,14.1
2023-05-19T18:27:04.987Z,14.1
2023-05-19T18:28:24.934Z,14.1
2023-05-19T18:30:05.747Z,14.1
2023-05-19T18:31:28.538Z,14.1
2023-05-19T18:33:43.728Z,14.1
2023-05-19T18:35:03.168Z,14.1
2023-05-19T18:36:15.078Z,14.1
2023-05-19T18:37:21.937Z,14.1
2023-05-19T18:38:41.481Z,14
2023-05-19T18:40:09.122Z,14.1
2023-05-19T18:41:46.160Z,14.1
2023-05-19T18:43:05.779Z,14.1
2023-05-19T18:44:13.718Z,13.9
2023-05-19T18:45:24.280Z,13.9
2023-05-19T18:47:19.463Z,13.9
2023-05-19T18:49:00.880Z,13.9
2023-05-19T18:50:09.978Z,13.9
2023-05-19T18:52:03.255Z,13.9
2023-05-19T18:53:18.374Z,13.9
2023-05-19T18:55:16.862Z,13.9
2023-05-19T18:56:25.678Z,13.6
2023-05-19T18:57:49.368Z,13.6
2023-05-19T18:59:33.870Z,13.6
2023-05-19T19:01:05.695Z,13.6
2023-05-19T19:03:21.823Z,13.6
2023-05-19T19:04:28.675Z,13.7
2023-05-19T19:06:11.293Z,13.7
2023-05-19T19:07:38.172Z,13.7
2023-05-19T19:08:46.066Z,13.7
2023-05-19T19:10:26.546Z,13.6
2023-05-19T19:11:36.113Z,13.6
2023-05-19T19:12:46.137Z,13.6
2023-05-19T19:13:53.783Z,13.6
2023-05-19T19:15:05.451Z,13.6
2023-05-19T19:16:20.459Z,13.6
2023-05-19T19:18:13.740Z,13.6
2023-05-19T19:19:47.693Z,13.5
2023-05-19T19:20:57.794Z,13.5
2023-05-19T19:22:04.778Z,13.4
2023-05-19T19:23:12.833Z,13.3
2023-05-19T19:24:40.045Z,13.3
2023-05-19T19:25:48.970Z,13.5
2023-05-19T19:27:11.104Z,13.5
2023-05-19T19:28:41.529Z,13.4
2023-05-19T19:29:54.926Z,13.2
2023-05-19T19:31:02.425Z,13.3
2023-05-19T19:32:41.139Z,13.2
2023-05-19T19:33:50.996Z,13.2
2023-05-19T19:35:00.749Z,13.2
2023-05-19T19:36:28.523Z,13.2
2023-05-19T19:37:54.333Z,13.2
2023-05-19T19:39:01.636Z,13.3
2023-05-19T19:40:08.755Z,13.2
2023-05-19T19:42:08.183Z,13.2
2023-05-19T19:44:01.899Z,13.2
2023-05-19T19:45:33.207Z,13.2
2023-05-19T19:46:43.378Z,13.1
2023-05-19T19:47:52.412Z,12.9
2023-05-19T19:49:08.036Z,13
2023-05-19T19:50:28.803Z,13
2023-05-19T19:51:53.867Z,13
2023-05-19T19:53:01.548Z,13.1
2023-05-19T19:54:14.895Z,13
2023-05-19T19:55:29.625Z,13
2023-05-19T19:56:46.579Z,13
2023-05-19T19:58:38.995Z,13
2023-05-19T20:02:55.616Z,13
2023-05-19T20:04:11.921Z,12.9
2023-05-19T20:06:26.877Z,12.9
2023-05-19T20:12:43.465Z,12.5
2023-05-19T20:20:27.104Z,12.6
2023-05-19T20:24:57.831Z,12.6
2023-05-19T20:26:32.442Z,12.6
2023-05-19T20:27:58.955Z,12.6
2023-05-19T20:29:28.933Z,12.6
2023-05-19T20:34:54.786Z,12.5
2023-05-19T20:36:58.469Z,12.5
2023-05-19T20:49:45.472Z,12.3
2023-05-19T20:50:56.027Z,12.3
2023-05-19T20:59:41.468Z,12.4
2023-05-19T21:00:48.544Z,12.5
2023-05-19T21:07:59.468Z,12.4
2023-05-19T21:09:09.257Z,12.5
2023-05-19T21:10:16.140Z,12.6
2023-05-19T21:11:23.189Z,12.7
2023-05-19T21:13:14.803Z,12.7
2023-05-19T21:15:01.556Z,12.7
2023-05-19T21:16:18.381Z,12.6
2023-05-19T21:20:39.813Z,12.7
2023-05-19T21:21:49.834Z,12.8
2023-05-19T21:23:08.704Z,12.8
2023-05-19T21:24:28.389Z,12.8
2023-05-19T21:25:35.273Z,12.8
2023-05-19T21:26:58.060Z,12.8
2023-05-19T21:28:37.036Z,12.8
2023-05-19T21:30:44.192Z,12.8
2023-05-19T21:31:58.113Z,12.8
2023-05-19T21:33:16.367Z,12.6
2023-05-19T21:35:32.500Z,12.6
2023-05-19T21:36:39.457Z,12.4
2023-05-19T21:37:57.179Z,12.4
2023-05-19T21:39:31.241Z,12.4
2023-05-19T21:40:48.610Z,12.7
2023-05-19T21:42:12.115Z,12.7
2023-05-19T21:44:14.412Z,12.7
2023-05-19T21:45:24.233Z,12.6
2023-05-19T21:46:36.119Z,12.6
2023-05-19T21:48:58.181Z,12.6
2023-05-19T21:51:01.244Z,12.6
2023-05-19T21:52:11.064Z,12.5
2023-05-19T21:53:54.798Z,12.5
2023-05-19T21:55:37.559Z,12.5
2023-05-19T21:57:16.250Z,12.5
2023-05-19T21:58:56.656Z,12.5
2023-05-19T22:00:43.702Z,12.5
2023-05-19T22:02:00.641Z,12.5
2023-05-19T22:03:10.279Z,12.7
2023-05-19T22:07:33.238Z,12.7
2023-05-19T22:09:09.270Z,12.7
2023-05-19T22:10:30.805Z,12.7
2023-05-19T22:12:28.293Z,12.7
2023-05-19T22:13:48.830Z,12.7
2023-05-19T22:15:02.245Z,12.5
2023-05-19T22:17:21.028Z,12.5
2023-05-19T22:18:29.002Z,12.4
2023-05-19T22:35:01.632Z,12.1
2023-05-19T22:39:12.636Z,12.3
2023-05-19T22:41:17.753Z,12.3
2023-05-19T22:42:51.945Z,12.3
2023-05-19T22:44:12.709Z,12.3
2023-05-19T22:45:19.669Z,12.2
2023-05-19T22:47:10.308Z,12.2
2023-05-19T22:48:42.438Z,12.1
2023-05-19T22:50:14.703Z,12.1
2023-05-19T22:52:01.068Z,12.2
2023-05-19T22:55:47.396Z,12.2
2023-05-19T22:57:46.540Z,12.2
2023-05-19T22:59:09.033Z,12.1
2023-05-19T23:00:17.859Z,12.2
2023-05-19T23:01:26.861Z,11.9
2023-05-19T23:05:46.651Z,12
2023-05-19T23:07:30.344Z,12
2023-05-19T23:09:20.630Z,12
2023-05-19T23:16:32.439Z,12
2023-05-19T23:18:02.728Z,12
2023-05-19T23:19:09.554Z,12
2023-05-19T23:20:16.299Z,12.1
2023-05-19T23:22:45.113Z,12.1
2023-05-19T23:26:44.344Z,12.4
2023-05-19T23:28:50.510Z,12.4
2023-05-19T23:30:02.318Z,12.4
2023-05-19T23:31:11.513Z,12.4
2023-05-19T23:32:19.301Z,12.3
2023-05-19T23:34:12.827Z,12.3
2023-05-19T23:35:21.693Z,12.1
2023-05-19T23:36:35.569Z,12.1
2023-05-19T23:40:51.498Z,12.1
2023-05-19T23:42:06.166Z,12.1
2023-05-19T23:43:13.071Z,12.1
2023-05-19T23:44:19.968Z,12
2023-05-19T23:45:36.559Z,12
2023-05-19T23:47:15.526Z,12
2023-05-19T23:48:22.366Z,12.2
2023-05-19T23:49:51.304Z,12.2
2023-05-19T23:51:45.570Z,12.2
2023-05-19T23:53:30.116Z,12.2
2023-05-19T23:54:36.931Z,12.3
2023-05-19T23:55:47.669Z,12.4
2023-05-19T23:57:57.566Z,12.4
2023-05-19T23:59:34.479Z,12.4
